Armstrong, Texas
Current Conditions -  °F | °C
As of 6:35 AM on Monday 22 Dec 2014 (Local Time) from KEBG Reporting Station
Haze Haze  
Wind Chill: 62°   Ceiling: 300
Heat Index: 62°   Visibility: 2mi
Dew Point: 60°   Wind: 7mph
Humidity: 93%   Direction: 180°S
Pressure: 29.8"   Gusts: NA
Location:  26.92°N, 97.79°W
Report Text: KEBG 221235Z AUTO 18006KT 2SM BR OVC003 17/16 A2980 RMK AO2 T01670155
Loading
Personal Weather Stations






























Interactive Weather Map New forecast layout! Learn more

10-Day Weather Forecast

Advertisements
Track Severe Weather on mobile